Portada
METAR-TAF:

METAR-TAF

Aeropuertos :

Aeropuerto de Valladolid

Valladolid, España

latitud: 41-43N, longitud: 004-51W, altitud: 849 m

Observación

El informe se hizo hace 32 minutos, a las 17:00 UTC
Viento 15 kt del este-noreste
Temperatura 23°C
Humedad 36%
Presión 1024 hPa
Visibilidad 10 km o más
sin nubes por debajo de 1500 m y sin presencia de cumulonimbus.

METAR: LEVD 261700Z 06015KT CAVOK 23/07 Q1024

Hora: 19:32 (17:32 UTC)

Pronóstico

El informe se hizo hace 3 horas y 32 minutos, a las 14:00 UTC
Pronóstico válido del 26 a las 15 UTC al 27 a las 15 UTC
Viento 14 kt del noreste
Visibilidad 10 km o más
sin nubes por debajo de 1500 m y sin presencia de cumulonimbus.
Probabilidad 40% :
Temporalmente
del 26 a las 15 UTC al 26 a las 18 UTC
Viento 15 kt del noreste con ráfagas de 25 kt

TAF: LEVD 261400Z 2615/2715 05014KT CAVOK TX29/2715Z TN08/2706Z PROB40 TEMPO 2615/2618 05015G25KT

Observaciones y pronósticos meteorológicos de más de 4000 aeropuertos (mensajes METAR y TAF).

Los puntos amarillos y rojos representan las estaciones disponibles.

Ponga el ratón en el punto deseado para ver el nombre de la estación.

Haga clic para ver las observaciones y los pronósticos meteorológicos.

Para cambiar el mapa : haga clic en los botones verdes con una cruz de color negro para hacer un zoom, en el botón verde con un guión para alejar o en las flechas verdes para mapas adyacentes.


METAR-TAF: